Relevés horaires Antwerpen / Deurne (Belgique)


Relevés horaires à Antwerpen / Deurne - Vendredi 15 Nov. 2019
Heure UTC1 Température [°C] Vent [km/h] Hum. [%] Pres.4 [hPa] Visi. [Km] Nébu. [octa] Préc.5 [mm] Cond.
2m. Res. Ros. Dir.2 Vit. Moy. Raf.3
23:00 2.2 2.2 0.5 ESE 1.9 3.7 5.6 88 1004.7(1.5/3h) 35 1/8 -- --
22:00 3.1 3.1 0.7 E 3.7 3.7 5.6 84 1004.2(1.5/3h) 10 1/8 -- --
21:00 3.3 3.3 0.4 SE 3.7 13.0 20.4 81 1003.4(1.6/3h) 10 1/8 -- --
20:00 6.1 3.8 1.1 S 11.1 13.0 20.4 70 1003.2(1.9/3h) 10 7/8 -- --
19:00 5.7 4.7 2.3 SE 5.6 5.6 7.4 79 1002.7(1.9/3h) 10 7/8 -- --
18:00 5.4 4.3 2.8 SE 5.6 11.1 14.8 83 1001.8(1.7/3h) 9 7/8 0/12h
--
17:00 4.9 3.7 2.6 ESE 5.6 7.4 9.3 85 1001.3(1.4/3h) 8 7/8 -- --
16:00 5.0 3.3 2.6 E 7.4 7.4 11.1 84 1000.8(0.9/3h) 7 7/8 -- --
15:00 4.9 3.2 2.3 ESE 7.4 11.1 14.8 83 1000(0.3/3h) 8 7/8 -- --
14:00 4.8 3.6 2.0 E 5.6 7.4 11.1 82 999.9(-0.1/3h) 9 7/8 -- --
13:00 4.6 2.8 1.9 E 7.4 9.3 13.0 83 999.9(-0.3/3h) 7 7/8 -- --
12:00 4.6 1.9 1.6 ENE 11.1 11.1 14.8 81 999.8(-0.9/3h) 8 7/8 0/6h
--
11:00 4.1 2.2 1.4 NE 7.4 9.3 14.8 83 999.8(-0.3/3h) 8 7/8 -- --
10:00 3.6 1.7 1.4 NE 7.4 7.4 13.0 85 1000.2(0.9/3h) 7 7/8 -- --
09:00 3.3 3.3 1.1 N 3.7 9.3 14.8 85 1000.7(1.1/3h) 6 7/8 -- --
08:00 3.2 0.7 1.5 NE 9.3 9.3 14.8 89 1000.1(-0.1/3h) 6 7/8 -- --
07:00 3.0 1 1.3 NE 7.4 9.3 13.0 89 999.3(-1.4/3h) 7 7/8 -- --
06:00 2.9 0.8 1.4 NE 7.4 7.4 11.1 90 999.6(-1.6/3h) 10 7/8 0/12h
--
05:00 3.1 1.1 1.5 NE 7.4 7.4 11.1 89 1000(-1.5/3h) -- 0/8 -- --
04:00 3.4 1.4 2.0 NNE 7.4 7.4 9.3 91 1000.7(-1.5/3h) 10 0/8 -- --
03:00 4.0 2.7 2.7 NE 5.6 5.6 9.3 91 1001.2(-1.3/3h) 15 0/8 -- --
02:00 4.5 3.3 2.9 N 5.6 5.6 7.4 89 1001.6(-1.5/3h) 21 0/8 -- --
01:00 4.8 3.6 3.0 N 5.6 5.6 7.4 88 1002.2(-0.8/3h) 22 0/8 -- --
00:00 5.0 5.0 3.0 N 3.7 5.6 7.4 87 1002.5(-0.6/3h) 28 0/8 0/6h
0.3/24h
--

1 Coordinated Universal Time. Actuellement il est 03:00 locale et 02:00 UTC.

2 Le vent souffle depuis la direction indiquée vers la direction oposée.

3 Les rafales max. sont disponible 40 min après l'heure du relevé.

4 Pour les stations d'altitude (plus de 600m) le géopotentiel du niveau le plus proche de la pression obligatoire est indiqué.

5 Les stations disposant d'un diffuseur peuvent indiquer "trace". Cela signifie que des précipitations ont touchés le sol mais que la quantité est inférieure à 0.1 mm.

Récapitulatif de la journée
Température [°C] Vent [km/h] Ensoleillement4 [h] Precipitations totale5 [mm] Pression [Hpa]
Min1 Max.2 Moy.3 Max. Min Max.
2.9 5.4 8 20.4 0 h 0 min 0 999.3 1004.7

1 Température minimale relevée entre 18:00 UTC la veille et 18:00 UTC le jour donné.

2 Température maximale relevée entre 06:00 UTC le jour donné et 06:00 UTC le lendemain.

3 Vent moyen de la journée basé sur les relevés horaires.

4 Ensoleillement en heures relevé entre 06:00 UTC la veille et 06:00 UTC le jour donné.

5 Précipitations totales tombées entre 06:00 UTC la jour donné et 06:00 UTC le lendemain.

Graphiques horaires